Time;durP1;ratioP1;P1;durP2;ratioP2;P2;SDS_P1;SDS_P2;PMS_P1;PMS_P2;Temp;Humidity;BMP_temperature;BMP_pressure;BME280_temperature;BME280_humidity;BME280_pressure;Samples;Min_cycle;Max_cycle;Signal;HPM_P1;HPM_P2
2023/02/27 00:01:50;;;;;;;14.27;4.20;;;;;;;-2.10;85.40;96488.53;5067479;28;20092;-74
2023/02/27 00:04:18;;;;;;;19.15;5.25;;;;;;;-2.26;86.08;96497.25;5064149;28;20045;-73
2023/02/27 00:06:44;;;;;;;13.75;4.82;;;;;;;-2.25;86.57;96491.66;5069449;28;20060;-73
2023/02/27 00:09:11;;;;;;;14.55;4.60;;;;;;;-2.29;87.15;96490.53;5069155;28;20041;-73
2023/02/27 00:11:38;;;;;;;12.13;4.38;;;;;;;-2.29;86.81;96492.41;5068429;28;20049;-73
2023/02/27 00:14:05;;;;;;;12.80;4.70;;;;;;;-2.33;86.82;96508.03;5068738;28;20052;-74
2023/02/27 00:16:31;;;;;;;14.77;5.05;;;;;;;-2.31;86.50;96508.59;5069385;28;20040;-74
2023/02/27 00:19:03;;;;;;;15.15;4.70;;;;;;;-2.27;86.88;96511.63;5069037;28;20048;-74
2023/02/27 00:21:30;;;;;;;11.85;3.50;;;;;;;-2.21;86.43;96514.16;5068885;28;20450;-73
2023/02/27 00:23:57;;;;;;;10.85;4.40;;;;;;;-2.22;86.66;96512.56;5069455;28;20048;-73
2023/02/27 00:26:24;;;;;;;16.95;4.82;;;;;;;-2.14;86.13;96514.03;5069060;28;20048;-73
2023/02/27 00:28:50;;;;;;;14.18;4.55;;;;;;;-2.11;86.61;96505.59;5069432;28;20044;-73
2023/02/27 00:31:17;;;;;;;11.65;4.40;;;;;;;-2.10;86.81;96509.88;5070788;28;20043;-74
2023/02/27 00:33:44;;;;;;;11.77;4.53;;;;;;;-2.16;87.12;96502.81;5071006;28;20051;-74
2023/02/27 00:36:12;;;;;;;12.75;4.15;;;;;;;-2.01;86.46;96513.81;5073498;28;20041;-74
2023/02/27 00:38:38;;;;;;;14.02;4.95;;;;;;;-1.94;85.98;96509.16;5074473;28;20036;-73
2023/02/27 00:41:05;;;;;;;15.38;4.55;;;;;;;-1.94;86.43;96505.66;5073540;28;20040;-74
2023/02/27 00:43:31;;;;;;;16.42;5.20;;;;;;;-1.92;86.08;96504.41;5074020;28;20045;-73
2023/02/27 00:45:58;;;;;;;13.05;4.25;;;;;;;-1.79;86.22;96511.31;5073477;28;20040;-74
2023/02/27 00:48:24;;;;;;;11.98;4.32;;;;;;;-1.81;86.01;96515.28;5072277;28;20049;-73
2023/02/27 00:50:51;;;;;;;13.13;4.63;;;;;;;-1.89;85.21;96509.25;5072471;28;20044;-73
2023/02/27 00:53:19;;;;;;;15.77;4.95;;;;;;;-1.77;85.58;96513.78;5071633;28;20063;-74
2023/02/27 00:55:45;;;;;;;16.40;5.20;;;;;;;-1.66;85.42;96510.25;5072412;28;20048;-73
2023/02/27 00:58:12;;;;;;;13.30;4.68;;;;;;;-1.63;85.65;96515.91;5072269;28;20037;-73
2023/02/27 01:00:38;;;;;;;12.07;4.22;;;;;;;-1.61;84.73;96513.84;5072774;28;20181;-73
2023/02/27 01:03:05;;;;;;;12.60;4.57;;;;;;;-1.66;84.56;96511.06;5071824;28;20067;-73
2023/02/27 01:05:32;;;;;;;11.95;4.57;;;;;;;-1.67;84.11;96519.28;5072099;28;20051;-73
2023/02/27 01:07:58;;;;;;;11.93;4.10;;;;;;;-1.71;83.74;96513.63;5072057;28;20407;-73
2023/02/27 01:10:26;;;;;;;15.18;4.57;;;;;;;-1.60;83.90;96507.44;5071887;28;20056;-73
2023/02/27 01:12:52;;;;;;;11.38;3.47;;;;;;;-1.60;82.98;96506.66;5072437;28;20432;-73
2023/02/27 01:15:19;;;;;;;12.02;4.13;;;;;;;-1.52;82.57;96505.44;5071783;28;20041;-74
2023/02/27 01:17:46;;;;;;;10.18;3.28;;;;;;;-1.53;82.14;96512.66;5072360;28;20048;-73
2023/02/27 01:20:16;;;;;;;11.43;3.75;;;;;;;-1.60;82.78;96503.97;5071275;28;20045;-74
2023/02/27 01:22:42;;;;;;;13.68;4.25;;;;;;;-1.53;82.80;96504.63;5072223;28;20127;-73
2023/02/27 01:25:11;;;;;;;14.77;4.10;;;;;;;-1.53;83.33;96503.81;5071545;28;20049;-74
2023/02/27 01:27:39;;;;;;;13.68;4.18;;;;;;;-1.51;83.17;96507.06;5072164;28;20044;-73
2023/02/27 01:30:07;;;;;;;11.40;3.88;;;;;;;-1.46;82.78;96509.84;5071713;28;20059;-74
2023/02/27 01:32:33;;;;;;;16.13;5.15;;;;;;;-1.71;82.07;96507.50;5071751;28;20099;-73
2023/02/27 01:35:00;;;;;;;9.38;3.58;;;;;;;-1.54;82.58;96516.38;5071632;28;20507;-73
2023/02/27 01:37:26;;;;;;;13.68;4.03;;;;;;;-1.54;82.99;96512.91;5071516;28;20500;-73
2023/02/27 01:39:52;;;;;;;13.25;3.85;;;;;;;-1.58;83.59;96512.53;5071936;28;20075;-73
2023/02/27 01:42:21;;;;;;;11.90;4.07;;;;;;;-1.61;82.67;96513.03;5071584;28;20051;-74
2023/02/27 01:45:24;;;;;;;14.23;3.88;;;;;;;-1.60;82.71;96520.00;5071438;28;20040;-73
2023/02/27 01:47:55;;;;;;;14.70;4.22;;;;;;;-1.57;83.20;96516.84;5071114;28;20048;-73
2023/02/27 01:50:23;;;;;;;14.20;4.32;;;;;;;-1.74;82.82;96523.97;5071142;28;20056;-73
2023/02/27 01:52:54;;;;;;;12.05;4.03;;;;;;;-1.65;82.61;96517.22;5071266;28;20055;-73
2023/02/27 01:55:21;;;;;;;12.43;3.83;;;;;;;-1.51;83.02;96523.09;5071178;28;20087;-74
2023/02/27 01:57:50;;;;;;;14.30;4.55;;;;;;;-1.64;82.85;96521.50;5071507;28;20040;-73
2023/02/27 02:00:18;;;;;;;14.00;4.13;;;;;;;-1.52;82.83;96511.59;5070972;28;20503;-74
2023/02/27 02:02:54;;;;;;;11.90;4.32;;;;;;;-1.43;82.74;96512.84;5071135;28;20041;-73
2023/02/27 02:05:21;;;;;;;9.27;3.50;;;;;;;-1.43;82.60;96515.50;5070646;28;20071;-73
2023/02/27 02:07:50;;;;;;;11.70;4.20;;;;;;;-1.53;82.80;96515.31;5071331;28;20089;-73
2023/02/27 02:10:18;;;;;;;13.75;4.18;;;;;;;-1.47;82.56;96517.03;5070695;28;20052;-73
2023/02/27 02:12:45;;;;;;;14.70;4.25;;;;;;;-1.48;82.12;96515.41;5071498;28;20055;-73
2023/02/27 02:15:12;;;;;;;8.68;3.42;;;;;;;-1.68;82.10;96510.47;5070389;28;20616;-74
2023/02/27 02:17:49;;;;;;;12.80;4.18;;;;;;;-1.44;82.68;96516.56;5071506;28;20051;-73
2023/02/27 02:21:01;;;;;;;10.43;3.65;;;;;;;-1.65;82.84;96518.03;5070726;28;20044;-73
2023/02/27 02:24:00;;;;;;;9.45;3.53;;;;;;;-1.59;83.19;96517.09;5044837;28;20063;-74
2023/02/27 02:26:50;;;;;;;11.77;3.65;;;;;;;-1.67;83.49;96520.13;5018823;28;20045;-73
2023/02/27 02:29:56;;;;;;;12.55;3.95;;;;;;;-1.62;83.13;96511.38;5068605;28;20044;-73
2023/02/27 02:32:49;;;;;;;12.48;4.00;;;;;;;-1.64;83.94;96510.81;5071251;28;20574;-73
2023/02/27 02:35:49;;;;;;;12.77;3.75;;;;;;;-1.68;83.75;96513.16;5062716;28;20063;-73
2023/02/27 02:38:37;;;;;;;12.30;4.25;;;;;;;-1.71;82.77;96513.63;5071510;28;20040;-73
2023/02/27 02:41:14;;;;;;;12.32;4.22;;;;;;;-1.57;82.25;96519.50;5072016;28;20044;-74
2023/02/27 02:43:50;;;;;;;11.43;4.20;;;;;;;-1.53;82.71;96509.97;5071930;28;20051;-73
2023/02/27 02:46:27;;;;;;;11.45;4.00;;;;;;;-1.55;82.90;96506.75;5071400;28;20070;-73
2023/02/27 02:49:01;;;;;;;13.07;4.18;;;;;;;-1.60;83.36;96518.13;5070876;28;20504;-74
2023/02/27 02:51:35;;;;;;;13.25;3.92;;;;;;;-1.48;82.21;96515.41;5070192;28;20534;-73
2023/02/27 02:54:11;;;;;;;12.35;4.03;;;;;;;-1.54;81.88;96513.69;5070189;28;20649;-75
2023/02/27 02:56:41;;;;;;;12.35;4.13;;;;;;;-1.51;81.72;96523.91;5070497;28;20040;-73
2023/02/27 02:59:14;;;;;;;6.55;3.20;;;;;;;-1.59;81.59;96521.63;5069194;28;20059;-74
2023/02/27 03:01:45;;;;;;;9.02;3.35;;;;;;;-1.67;82.14;96513.97;5066953;28;20494;-73
2023/02/27 03:04:15;;;;;;;16.38;4.68;;;;;;;-1.64;82.28;96518.84;5063670;28;20052;-74
2023/02/27 03:06:47;;;;;;;13.43;4.18;;;;;;;-1.60;81.92;96514.66;5069835;28;20087;-73
2023/02/27 03:09:20;;;;;;;12.90;4.30;;;;;;;-1.61;82.22;96518.38;5069922;28;20052;-74
2023/02/27 03:11:50;;;;;;;12.02;3.95;;;;;;;-1.63;81.79;96515.13;5070502;28;20052;-73
2023/02/27 03:14:21;;;;;;;16.38;4.82;;;;;;;-1.56;82.31;96518.47;5069516;28;20044;-74
2023/02/27 03:16:52;;;;;;;13.52;3.92;;;;;;;-1.51;82.62;96512.41;5070194;28;20056;-73
2023/02/27 03:19:23;;;;;;;13.60;4.22;;;;;;;-1.54;81.68;96503.03;5069205;28;20076;-73
2023/02/27 03:21:55;;;;;;;13.40;4.25;;;;;;;-1.43;81.75;96514.72;5068431;28;20071;-74
2023/02/27 03:24:26;;;;;;;14.63;4.07;;;;;;;-1.45;82.05;96517.63;5069559;28;20083;-73
2023/02/27 03:26:58;;;;;;;11.35;4.00;;;;;;;-1.46;81.73;96509.84;5069848;28;20047;-73
2023/02/27 03:29:31;;;;;;;14.45;4.25;;;;;;;-1.58;81.21;96513.34;5069651;28;20044;-73
2023/02/27 03:32:02;;;;;;;15.20;4.82;;;;;;;-1.66;81.94;96518.28;5066982;28;20591;-74
2023/02/27 03:34:33;;;;;;;13.23;4.60;;;;;;;-1.56;81.93;96513.13;5065835;28;20044;-73
2023/02/27 03:37:05;;;;;;;12.38;3.90;;;;;;;-1.65;81.53;96517.22;5053686;28;20462;-74
2023/02/27 03:39:44;;;;;;;12.63;4.13;;;;;;;-1.60;82.42;96512.78;5049855;28;20051;-74
2023/02/27 03:42:17;;;;;;;13.15;4.40;;;;;;;-1.68;82.29;96517.69;5059430;28;20393;-74
2023/02/27 03:44:53;;;;;;;12.48;4.53;;;;;;;-1.60;82.39;96528.81;5069795;28;20052;-73
2023/02/27 03:47:20;;;;;;;12.60;4.03;;;;;;;-1.51;83.41;96529.25;5069432;28;20582;-73
2023/02/27 03:49:49;;;;;;;11.32;4.32;;;;;;;-1.64;82.89;96524.19;5070020;28;20055;-73
2023/02/27 03:52:16;;;;;;;11.57;3.85;;;;;;;-1.76;83.48;96536.75;5069449;28;20048;-73
2023/02/27 03:54:51;;;;;;;12.77;4.05;;;;;;;-1.61;83.18;96531.72;5069335;28;20102;-73
2023/02/27 03:57:18;;;;;;;10.55;4.05;;;;;;;-1.50;82.45;96528.22;5069236;28;20119;-73
2023/02/27 03:59:44;;;;;;;12.40;4.15;;;;;;;-1.73;82.58;96541.59;5069681;28;20047;-73
2023/02/27 04:02:11;;;;;;;11.20;3.88;;;;;;;-1.71;82.54;96539.53;5064826;28;20060;-75
2023/02/27 04:04:38;;;;;;;12.77;4.03;;;;;;;-1.71;82.81;96542.19;5075276;28;20048;-73
2023/02/27 04:07:21;;;;;;;14.80;4.65;;;;;;;-1.72;82.78;96536.06;5068740;28;20543;-74
2023/02/27 04:10:07;;;;;;;12.13;3.88;;;;;;;-1.71;82.89;96540.34;5070827;28;20068;-73
2023/02/27 04:13:08;;;;;;;10.57;3.70;;;;;;;-1.78;82.33;96544.16;5073489;28;20491;-73
2023/02/27 04:15:46;;;;;;;15.40;4.38;;;;;;;-1.68;82.45;96545.19;5071989;28;20055;-73
2023/02/27 04:18:24;;;;;;;12.73;4.93;;;;;;;-1.77;82.46;96545.81;5072850;28;20048;-74
2023/02/27 04:20:57;;;;;;;12.40;4.20;;;;;;;-1.70;82.13;96549.97;5073389;28;20045;-73
2023/02/27 04:23:34;;;;;;;14.00;4.30;;;;;;;-1.65;81.50;96543.91;5073293;28;20048;-74
2023/02/27 04:26:16;;;;;;;13.13;4.22;;;;;;;-1.66;83.04;96543.13;5073311;28;20642;-73
2023/02/27 04:28:48;;;;;;;11.13;3.33;;;;;;;-1.65;82.30;96543.91;5073547;28;20044;-73
2023/02/27 04:31:21;;;;;;;11.15;3.92;;;;;;;-1.56;82.63;96547.84;5072753;28;20286;-74
2023/02/27 04:33:50;;;;;;;;;;;;;;;-1.69;82.54;96548.09;5073648;28;20040;-73
2023/02/27 04:36:26;;;;;;;11.23;4.07;;;;;;;-1.73;82.15;96541.59;5072706;28;19927;-74
2023/02/27 04:39:00;;;;;;;11.75;3.83;;;;;;;-1.70;81.67;96536.63;5073108;28;20045;-73
2023/02/27 04:41:33;;;;;;;6.72;3.22;;;;;;;-1.73;82.34;96546.94;5072768;28;20044;-73
2023/02/27 04:44:02;;;;;;;12.45;4.13;;;;;;;-1.94;81.52;96549.19;5073207;28;20416;-73
2023/02/27 04:46:31;;;;;;;8.27;3.45;;;;;;;-1.89;82.30;96543.94;5073548;28;20048;-73
2023/02/27 04:49:02;;;;;;;10.55;3.85;;;;;;;-1.81;82.75;96539.31;5074429;28;20074;-73
2023/02/27 04:51:34;;;;;;;9.48;3.58;;;;;;;-1.82;82.87;96543.84;5074162;28;20052;-74
2023/02/27 04:54:07;;;;;;;8.45;3.45;;;;;;;-1.84;82.43;96541.38;5073913;28;20052;-73
2023/02/27 04:56:40;;;;;;;9.50;3.88;;;;;;;-1.96;83.26;96532.59;5074310;28;20464;-74
2023/02/27 04:59:09;;;;;;;;;;;;;;;-1.96;83.17;96540.59;5074197;28;20471;-75
2023/02/27 05:01:40;;;;;;;8.02;2.78;;;;;;;-2.00;82.61;96535.97;5073794;28;19928;-74
2023/02/27 05:04:11;;;;;;;13.00;4.05;;;;;;;-2.07;83.44;96543.28;5070378;28;20045;-75
2023/02/27 05:06:41;;;;;;;10.75;3.50;;;;;;;-2.06;83.36;96545.72;5082140;28;20135;-74
2023/02/27 05:09:14;;;;;;;15.63;4.78;;;;;;;-2.01;83.23;96537.81;5080431;28;20049;-74
2023/02/27 05:11:47;;;;;;;14.50;4.40;;;;;;;-2.07;82.72;96546.78;5081775;28;20048;-74
2023/02/27 05:14:20;;;;;;;19.73;5.45;;;;;;;-2.05;83.90;96544.66;5081192;28;20040;-73
2023/02/27 05:16:52;;;;;;;11.02;4.13;;;;;;;-2.04;83.53;96548.94;5081607;28;20044;-73
2023/02/27 05:19:20;;;;;;;15.40;4.78;;;;;;;-1.90;83.69;96530.84;5080391;28;20045;-74
2023/02/27 05:21:55;;;;;;;14.95;4.15;;;;;;;-2.10;83.46;96536.56;5079212;28;20045;-74
2023/02/27 05:24:32;;;;;;;12.23;4.10;;;;;;;-2.26;84.29;96540.72;5078714;28;20048;-74
2023/02/27 05:27:21;;;;;;;15.52;5.00;;;;;;;-2.30;84.72;96536.09;5072929;28;20040;-74
2023/02/27 05:29:50;;;;;;;8.55;3.65;;;;;;;-2.31;85.51;96539.81;5053143;28;20669;-74
2023/02/27 05:32:26;;;;;;;18.20;4.82;;;;;;;-2.33;85.39;96537.38;5053287;28;20045;-74
2023/02/27 05:34:58;;;;;;;14.73;4.45;;;;;;;-2.32;85.41;96543.53;5072618;28;20104;-74
2023/02/27 05:37:31;;;;;;;13.13;4.28;;;;;;;-2.46;86.15;96542.91;5073478;28;20044;-73
2023/02/27 05:40:00;;;;;;;12.38;4.38;;;;;;;-2.36;86.21;96548.50;5074315;28;20411;-73
2023/02/27 05:42:33;;;;;;;13.65;4.70;;;;;;;-2.52;85.58;96544.66;5074110;28;20052;-73
2023/02/27 05:45:06;;;;;;;15.65;4.78;;;;;;;-2.62;86.79;96555.06;5073116;28;20040;-74
2023/02/27 05:47:36;;;;;;;12.88;4.80;;;;;;;-2.58;87.13;96561.59;5073897;28;20407;-73
2023/02/27 05:50:09;;;;;;;13.88;4.85;;;;;;;-2.44;87.15;96557.66;5073513;28;20052;-74
2023/02/27 05:52:37;;;;;;;12.25;4.20;;;;;;;-2.50;86.95;96547.13;5067696;28;20067;-73
2023/02/27 05:55:08;;;;;;;15.60;4.55;;;;;;;-2.45;86.62;96558.72;5073475;28;20478;-74
2023/02/27 05:57:41;;;;;;;16.67;4.78;;;;;;;-2.51;86.82;96556.94;5072395;28;20455;-75
2023/02/27 06:00:10;;;;;;;;;;;;;;;-2.50;87.06;96555.13;5071620;28;20044;-74
2023/02/27 06:02:37;;;;;;;15.98;4.65;;;;;;;-2.46;87.56;96553.59;5063680;28;19921;-73
2023/02/27 06:05:04;;;;;;;9.50;4.15;;;;;;;-2.45;87.57;96555.25;5062537;28;20055;-74
2023/02/27 06:07:31;;;;;;;16.52;4.60;;;;;;;-2.45;87.70;96560.56;5071810;28;20044;-73
2023/02/27 06:10:00;;;;;;;10.90;4.60;;;;;;;-2.48;88.24;96556.50;5071976;28;20067;-74
2023/02/27 06:12:26;;;;;;;12.90;4.72;;;;;;;-2.43;88.45;96556.63;5074176;28;20056;-74
2023/02/27 06:14:54;;;;;;;16.90;5.60;;;;;;;-2.38;88.18;96561.25;5071222;28;20052;-73
2023/02/27 06:17:20;;;;;;;13.43;5.00;;;;;;;-2.43;87.53;96564.63;5070884;28;20048;-74
2023/02/27 06:19:47;;;;;;;15.07;5.13;;;;;;;-2.36;87.49;96559.97;5070922;28;20401;-73
2023/02/27 06:22:13;;;;;;;10.93;4.75;;;;;;;-2.25;87.34;96568.22;5072490;28;20051;-74
2023/02/27 06:24:40;;;;;;;15.82;5.00;;;;;;;-2.43;86.71;96569.94;5071659;28;20127;-74
2023/02/27 06:27:06;;;;;;;11.68;4.40;;;;;;;-2.36;86.91;96570.63;5072274;28;20364;-73
2023/02/27 06:29:32;;;;;;;13.10;4.65;;;;;;;-2.33;86.96;96576.56;5072430;28;20055;-74
2023/02/27 06:32:00;;;;;;;14.00;4.32;;;;;;;-2.33;86.62;96574.72;5073577;28;20052;-74
2023/02/27 06:34:27;;;;;;;13.40;4.57;;;;;;;-2.34;86.14;96573.09;5072578;28;20071;-74
2023/02/27 06:36:54;;;;;;;13.52;4.40;;;;;;;-2.25;85.77;96582.38;5072950;28;20055;-73
2023/02/27 06:39:21;;;;;;;14.52;4.75;;;;;;;-2.25;86.23;96574.34;5073099;28;20067;-74
2023/02/27 06:41:48;;;;;;;15.10;5.03;;;;;;;-2.25;85.70;96577.03;5075130;28;20785;-73
2023/02/27 06:44:14;;;;;;;21.63;6.30;;;;;;;-2.13;85.62;96579.72;5074575;28;20106;-74
2023/02/27 06:46:41;;;;;;;17.50;5.50;;;;;;;-2.15;84.51;96585.28;5073654;28;20052;-74
2023/02/27 06:49:09;;;;;;;16.13;5.40;;;;;;;-2.17;84.15;96584.69;5071728;28;20070;-75
2023/02/27 06:51:35;;;;;;;16.17;5.03;;;;;;;-2.04;84.68;96583.66;5072929;28;20068;-74
2023/02/27 06:54:02;;;;;;;13.88;4.72;;;;;;;-1.92;85.50;96586.31;5074441;28;20044;-77
2023/02/27 06:56:28;;;;;;;13.85;4.57;;;;;;;-1.85;83.47;96582.47;5075393;28;20055;-74
2023/02/27 06:58:56;;;;;;;13.43;4.75;;;;;;;-1.71;83.22;96583.06;5073702;28;20056;-74
2023/02/27 07:01:23;;;;;;;12.02;4.13;;;;;;;-1.70;82.74;96589.19;5073880;28;20048;-74
2023/02/27 07:03:50;;;;;;;18.40;4.90;;;;;;;-1.55;83.09;96589.53;5073650;28;20055;-74
2023/02/27 07:06:17;;;;;;;16.90;4.90;;;;;;;-1.58;82.13;96584.66;5073253;28;20044;-74
2023/02/27 07:08:44;;;;;;;12.43;4.22;;;;;;;-1.47;82.29;96591.81;5074516;28;20051;-74
2023/02/27 07:11:11;;;;;;;14.10;4.95;;;;;;;-1.39;81.85;96588.78;5075011;28;20135;-73
2023/02/27 07:13:37;;;;;;;12.60;4.50;;;;;;;-1.42;81.77;96591.94;5074519;28;20466;-74
2023/02/27 07:16:04;;;;;;;11.27;4.05;;;;;;;-1.35;81.56;96591.81;5074410;28;20459;-73
2023/02/27 07:18:31;;;;;;;12.90;4.28;;;;;;;-1.35;81.32;96587.28;5073152;28;20051;-74
2023/02/27 07:20:57;;;;;;;13.35;4.68;;;;;;;-1.35;81.25;96592.63;5073499;28;20048;-73
2023/02/27 07:23:25;;;;;;;10.93;4.32;;;;;;;-1.26;80.29;96589.56;5073010;28;20056;-74
2023/02/27 07:25:51;;;;;;;12.75;4.40;;;;;;;-1.27;80.87;96593.28;5073373;28;20055;-74
2023/02/27 07:28:18;;;;;;;12.82;5.30;;;;;;;-1.26;79.97;96589.56;5072535;28;20036;-74
2023/02/27 07:30:45;;;;;;;14.13;4.90;;;;;;;-1.30;80.49;96585.75;5072902;28;20447;-74
2023/02/27 07:33:11;;;;;;;17.05;4.97;;;;;;;-1.17;80.18;96588.16;5072619;28;20037;-74
2023/02/27 07:35:38;;;;;;;12.48;4.35;;;;;;;-1.14;80.38;96587.69;5073257;28;20055;-73
2023/02/27 07:38:04;;;;;;;8.43;3.75;;;;;;;-1.11;78.78;96589.88;5071507;28;20043;-74
2023/02/27 07:40:32;;;;;;;14.63;4.53;;;;;;;-1.23;78.35;96594.44;5069850;28;20049;-74
2023/02/27 07:42:59;;;;;;;11.65;4.05;;;;;;;-1.00;78.65;96594.34;5070172;28;20036;-74
2023/02/27 07:45:25;;;;;;;13.63;4.47;;;;;;;-1.05;79.15;96603.06;5069030;28;20109;-73
2023/02/27 07:47:52;;;;;;;16.83;4.80;;;;;;;-1.13;77.55;96605.34;5069806;28;20044;-74
2023/02/27 07:50:18;;;;;;;12.32;4.53;;;;;;;-0.92;78.84;96596.66;5069345;28;20053;-74
2023/02/27 07:52:45;;;;;;;20.55;4.03;;;;;;;-0.79;77.86;96604.38;5069778;28;20052;-74
2023/02/27 07:55:12;;;;;;;14.40;4.85;;;;;;;-0.75;77.36;96606.56;5068856;28;20040;-73
2023/02/27 07:57:40;;;;;;;14.32;4.45;;;;;;;-0.61;75.37;96591.84;5070264;28;20127;-74
2023/02/27 08:00:09;;;;;;;11.65;4.30;;;;;;;-0.48;74.23;96607.59;5069415;28;20044;-74
2023/02/27 08:02:35;;;;;;;13.02;4.50;;;;;;;-0.56;73.93;96611.47;5069673;28;20075;-73
2023/02/27 08:05:02;;;;;;;10.55;4.30;;;;;;;-0.49;74.84;96611.31;5068922;28;20507;-75
2023/02/27 08:07:28;;;;;;;15.65;4.32;;;;;;;-0.28;74.26;96605.25;5069470;28;20056;-74
2023/02/27 08:09:55;;;;;;;11.60;4.50;;;;;;;-0.20;73.43;96614.75;5069169;28;20138;-74
2023/02/27 08:12:22;;;;;;;14.27;4.35;;;;;;;-0.14;71.87;96596.91;5069177;28;20047;-74
2023/02/27 08:14:49;;;;;;;14.48;4.78;;;;;;;0.00;70.51;96608.91;5069469;28;20560;-74
2023/02/27 08:17:16;;;;;;;14.30;4.80;;;;;;;0.19;71.15;96607.59;5069242;28;20040;-74
2023/02/27 08:19:42;;;;;;;14.30;4.40;;;;;;;0.27;69.57;96613.59;5069656;28;20052;-74
2023/02/27 08:22:10;;;;;;;12.25;4.10;;;;;;;0.16;69.35;96615.31;5069093;28;20040;-74
2023/02/27 08:24:37;;;;;;;12.63;4.60;;;;;;;-0.22;69.39;96624.06;5069502;28;20068;-73
2023/02/27 08:27:04;;;;;;;12.75;4.65;;;;;;;-0.20;71.25;96624.66;5069131;28;20074;-74
2023/02/27 08:29:31;;;;;;;9.60;4.10;;;;;;;-0.01;69.98;96618.78;5069576;28;20048;-74
2023/02/27 08:31:59;;;;;;;19.05;5.32;;;;;;;0.11;71.01;96628.63;5069096;28;20048;-74
2023/02/27 08:34:26;;;;;;;15.07;4.20;;;;;;;0.15;70.53;96619.84;5068975;28;20048;-74
2023/02/27 08:36:53;;;;;;;15.85;4.60;;;;;;;0.28;70.47;96625.94;5069338;28;20047;-74
2023/02/27 08:39:22;;;;;;;15.75;4.97;;;;;;;0.16;68.40;96629.50;5069080;28;20044;-74
2023/02/27 08:41:52;;;;;;;12.20;4.63;;;;;;;0.23;70.56;96629.34;5069792;28;20522;-73
2023/02/27 08:44:19;;;;;;;22.75;5.93;;;;;;;0.12;68.71;96638.28;5068684;28;20380;-74
2023/02/27 08:46:45;;;;;;;18.13;5.38;;;;;;;0.05;67.54;96638.41;5069429;28;20053;-74
2023/02/27 08:49:13;;;;;;;11.75;4.32;;;;;;;0.18;67.47;96632.75;5069392;28;20391;-74
2023/02/27 08:51:39;;;;;;;11.13;4.18;;;;;;;0.28;68.44;96636.63;5069454;28;20052;-73
2023/02/27 08:54:06;;;;;;;16.38;5.25;;;;;;;0.28;66.54;96640.13;5068623;28;20045;-74
2023/02/27 08:56:33;;;;;;;13.65;5.18;;;;;;;0.41;66.57;96644.31;5070065;28;20500;-74
2023/02/27 08:59:00;;;;;;;13.02;4.63;;;;;;;0.31;67.30;96652.19;5072658;28;20131;-73
2023/02/27 09:01:31;;;;;;;14.85;4.70;;;;;;;0.01;68.21;96658.72;5072342;28;20462;-74
2023/02/27 09:03:58;;;;;;;14.57;4.85;;;;;;;-0.08;67.03;96654.81;5071040;28;20526;-73
2023/02/27 09:06:25;;;;;;;10.60;4.05;;;;;;;-0.15;67.87;96649.63;5072139;28;20060;-74
2023/02/27 09:08:52;;;;;;;15.60;4.80;;;;;;;-0.13;67.94;96657.41;5072538;28;20499;-74
2023/02/27 09:11:18;;;;;;;11.23;4.93;;;;;;;-0.10;66.48;96662.31;5072053;28;20086;-74
2023/02/27 09:13:45;;;;;;;13.05;4.82;;;;;;;0.01;67.40;96658.72;5072709;28;20048;-73
2023/02/27 09:16:12;;;;;;;14.52;4.65;;;;;;;0.07;66.72;96663.09;5072275;28;20047;-73
2023/02/27 09:18:38;;;;;;;13.45;4.57;;;;;;;-0.07;66.76;96665.28;5072641;28;20064;-73
2023/02/27 09:21:05;;;;;;;12.38;4.60;;;;;;;-0.04;67.19;96664.00;5072172;28;20041;-74
2023/02/27 09:23:33;;;;;;;15.77;5.30;;;;;;;0.02;66.99;96673.72;5072384;28;20052;-74
2023/02/27 09:25:59;;;;;;;14.38;4.68;;;;;;;-0.14;65.18;96675.34;5072046;28;20051;-73
2023/02/27 09:28:26;;;;;;;21.80;4.90;;;;;;;-0.11;66.67;96671.34;5071962;28;20056;-74
2023/02/27 09:30:52;;;;;;;18.75;5.55;;;;;;;-0.01;66.30;96671.53;5072399;28;20060;-73
2023/02/27 09:33:19;;;;;;;13.90;4.90;;;;;;;-0.19;67.46;96669.09;5071691;28;20040;-73
2023/02/27 09:35:45;;;;;;;16.38;5.13;;;;;;;0.01;67.13;96669.44;5071787;28;20102;-73
2023/02/27 09:38:14;;;;;;;13.80;4.80;;;;;;;0.24;67.71;96671.94;5071640;28;20060;-74
2023/02/27 09:40:44;;;;;;;15.70;4.95;;;;;;;0.38;64.28;96674.28;5071873;28;20048;-74
2023/02/27 09:43:15;;;;;;;14.00;5.18;;;;;;;0.31;63.04;96682.47;5071632;28;20051;-74
2023/02/27 09:45:43;;;;;;;14.23;4.68;;;;;;;0.38;63.67;96680.47;5071849;28;20052;-74
2023/02/27 09:48:20;;;;;;;16.70;4.80;;;;;;;0.43;61.93;96683.22;5071399;28;20045;-73
2023/02/27 09:50:48;;;;;;;13.05;4.35;;;;;;;0.55;62.52;96685.78;5072010;28;20408;-73
2023/02/27 09:53:21;;;;;;;8.50;3.53;;;;;;;0.35;60.00;96680.13;5071427;28;20047;-73
2023/02/27 09:55:50;;;;;;;12.45;4.25;;;;;;;0.33;61.15;96692.97;5071598;28;20048;-73
2023/02/27 09:58:28;;;;;;;12.93;3.83;;;;;;;0.35;61.54;96690.84;5071337;28;20052;-74
2023/02/27 10:01:04;;;;;;;11.18;4.25;;;;;;;0.25;60.38;96696.84;5071617;28;20075;-74
2023/02/27 10:03:49;;;;;;;17.02;4.72;;;;;;;0.25;60.65;96702.22;5069206;28;20049;-73
2023/02/27 10:06:24;;;;;;;12.32;4.18;;;;;;;-0.01;61.11;96698.31;5070815;28;20105;-73
2023/02/27 10:09:04;;;;;;;13.88;4.45;;;;;;;-0.18;60.60;96709.00;5071631;28;20044;-73
2023/02/27 10:11:43;;;;;;;11.40;3.80;;;;;;;-0.12;60.85;96717.91;5071486;28;20044;-74
2023/02/27 10:14:23;;;;;;;16.20;4.50;;;;;;;0.19;59.91;96719.25;5070741;28;20044;-74
2023/02/27 10:16:52;;;;;;;13.57;4.00;;;;;;;0.17;59.00;96716.81;5071259;28;20056;-73
2023/02/27 10:19:26;;;;;;;13.00;4.10;;;;;;;0.33;59.91;96720.56;5070364;28;20048;-74
2023/02/27 10:21:53;;;;;;;12.55;3.80;;;;;;;-0.10;59.50;96729.22;5071016;28;20063;-74
2023/02/27 10:24:26;;;;;;;21.88;5.32;;;;;;;0.21;58.33;96728.69;5070756;28;20059;-74
2023/02/27 10:26:56;;;;;;;17.58;4.18;;;;;;;0.34;60.18;96732.09;5075583;28;20551;-74
2023/02/27 10:29:29;;;;;;;7.47;3.17;;;;;;;0.44;60.88;96729.56;5070488;28;20059;-73
2023/02/27 10:32:00;;;;;;;16.38;4.43;;;;;;;0.38;57.50;96738.59;5071196;28;20044;-73
2023/02/27 10:34:29;;;;;;;14.52;4.30;;;;;;;0.24;57.50;96733.53;5070280;28;20047;-73
2023/02/27 10:36:56;;;;;;;14.15;3.45;;;;;;;0.06;57.02;96736.47;5070827;28;20049;-73
2023/02/27 10:39:24;;;;;;;16.58;4.00;;;;;;;0.03;58.14;96736.94;5070210;28;20062;-73
2023/02/27 10:41:51;;;;;;;11.90;2.95;;;;;;;0.16;57.82;96739.31;5070418;28;20128;-74
2023/02/27 10:44:19;;;;;;;16.10;4.47;;;;;;;0.19;57.87;96744.16;5070203;28;20049;-74
2023/02/27 10:46:46;;;;;;;15.15;3.47;;;;;;;0.06;57.76;96746.34;5070707;28;20397;-73
2023/02/27 10:49:16;;;;;;;10.95;3.45;;;;;;;0.23;57.74;96736.47;5069073;28;20047;-74
2023/02/27 10:51:45;;;;;;;9.05;2.88;;;;;;;0.48;56.71;96746.78;5070562;28;20051;-73
2023/02/27 10:54:23;;;;;;;14.95;3.83;;;;;;;0.56;55.69;96737.50;5069889;28;20496;-74
2023/02/27 10:56:52;;;;;;;9.90;2.72;;;;;;;0.57;54.77;96741.81;5070523;28;20052;-74
2023/02/27 10:59:23;;;;;;;10.77;3.40;;;;;;;0.69;57.22;96740.69;5069439;28;20068;-74
2023/02/27 11:01:53;;;;;;;11.27;3.45;;;;;;;0.71;57.99;96733.19;5070242;28;20052;-74
2023/02/27 11:04:31;;;;;;;19.05;4.70;;;;;;;0.99;55.10;96740.31;5069801;28;20045;-73
2023/02/27 11:06:58;;;;;;;12.85;3.85;;;;;;;1.18;58.18;96738.13;5070623;28;20044;-74
2023/02/27 11:09:28;;;;;;;13.15;3.92;;;;;;;1.44;57.00;96730.41;5070046;28;20104;-74
2023/02/27 11:11:55;;;;;;;15.30;3.83;;;;;;;1.50;56.63;96734.75;5070241;28;20440;-73
2023/02/27 11:14:29;;;;;;;13.82;3.67;;;;;;;1.11;57.83;96734.03;5069630;28;20404;-74
2023/02/27 11:16:57;;;;;;;11.00;3.65;;;;;;;0.89;56.64;96733.97;5070297;28;20052;-74
2023/02/27 11:19:26;;;;;;;12.57;3.90;;;;;;;0.86;59.78;96726.44;5068756;28;20515;-73
2023/02/27 11:22:04;;;;;;;10.77;3.65;;;;;;;0.76;58.92;96727.09;5069940;28;20412;-74
2023/02/27 11:24:31;;;;;;;13.20;3.83;;;;;;;0.82;59.33;96736.03;5069774;28;20049;-73
2023/02/27 11:26:59;;;;;;;14.23;3.72;;;;;;;0.73;58.58;96724.91;5070289;28;20662;-75
2023/02/27 11:29:27;;;;;;;10.88;3.55;;;;;;;0.53;58.12;96730.78;5069764;28;20583;-74
2023/02/27 11:31:56;;;;;;;14.57;3.95;;;;;;;0.77;59.14;96726.84;5070113;28;20128;-73
2023/02/27 11:34:28;;;;;;;7.18;2.92;;;;;;;0.63;57.96;96736.31;5061266;28;20041;-74
2023/02/27 11:36:59;;;;;;;14.43;3.60;;;;;;;0.72;56.97;96713.38;5070248;28;20060;-73
2023/02/27 11:39:30;;;;;;;14.80;4.22;;;;;;;0.86;57.64;96729.13;5069601;28;20126;-74
2023/02/27 11:42:05;;;;;;;8.02;2.72;;;;;;;0.65;56.42;96722.66;5070037;28;20435;-73
2023/02/27 11:44:33;;;;;;;13.27;3.47;;;;;;;0.85;56.26;96724.81;5069709;28;20064;-73